createdAt,value
2018-02-12T00:00:18.312Z,2.15
2018-02-12T00:02:45.865Z,2.60
2018-02-12T00:05:13.404Z,1.50
2018-02-12T00:07:41.743Z,1.65
2018-02-12T00:10:09.275Z,1.65
2018-02-12T00:12:36.853Z,1.02
2018-02-12T00:15:04.417Z,1.50
2018-02-12T00:17:31.976Z,1.05
2018-02-12T00:19:59.550Z,1.27
2018-02-12T00:22:27.097Z,1.10
2018-02-12T00:24:59.182Z,0.75
2018-02-12T00:27:27.509Z,0.70
2018-02-12T00:29:55.046Z,0.80
2018-02-12T00:32:22.604Z,1.10
2018-02-12T00:34:50.156Z,0.80
2018-02-12T00:37:18.510Z,0.80
2018-02-12T00:39:46.056Z,1.00
2018-02-12T00:42:13.586Z,0.93
2018-02-12T00:44:41.220Z,1.00
2018-02-12T00:47:09.531Z,0.88
2018-02-12T00:49:37.077Z,0.90
2018-02-12T00:52:04.624Z,1.15
2018-02-12T00:54:32.190Z,1.25
2018-02-12T00:56:59.741Z,1.62
2018-02-12T00:59:28.075Z,1.33
2018-02-12T01:01:55.623Z,1.50
2018-02-12T01:04:23.184Z,1.52
2018-02-12T01:06:50.716Z,1.37
2018-02-12T01:09:18.286Z,1.37
2018-02-12T01:11:45.820Z,1.70
2018-02-12T01:14:13.396Z,1.75
2018-02-12T01:16:40.970Z,2.55
2018-02-12T01:19:08.509Z,2.03
2018-02-12T01:21:36.063Z,1.80
2018-02-12T01:24:03.621Z,1.58
2018-02-12T01:26:31.183Z,1.77
2018-02-12T01:28:58.736Z,1.48
2018-02-12T01:31:27.068Z,1.10
2018-02-12T01:33:54.700Z,1.25
2018-02-12T01:36:22.239Z,1.30
2018-02-12T01:38:49.803Z,1.00
2018-02-12T01:41:17.356Z,1.65
2018-02-12T01:43:44.888Z,1.10
2018-02-12T01:46:12.412Z,1.12
2018-02-12T01:48:39.984Z,0.93
2018-02-12T01:51:07.564Z,1.10
2018-02-12T01:53:35.913Z,0.90
2018-02-12T01:56:04.303Z,0.90
2018-02-12T01:58:31.854Z,1.10
2018-02-12T02:00:59.397Z,1.00
2018-02-12T02:03:26.960Z,1.00
2018-02-12T02:05:54.533Z,1.10
2018-02-12T02:08:22.087Z,1.10
2018-02-12T02:10:49.636Z,1.17
2018-02-12T02:13:17.186Z,1.00
2018-02-12T02:15:44.724Z,1.08
2018-02-12T02:18:13.045Z,1.20
2018-02-12T02:20:40.617Z,0.88
2018-02-12T02:23:08.170Z,1.10
2018-02-12T02:25:35.715Z,1.00
2018-02-12T02:28:03.264Z,1.20
2018-02-12T02:30:30.825Z,1.00
2018-02-12T02:32:58.433Z,0.98
2018-02-12T02:35:26.781Z,0.75
2018-02-12T02:37:54.318Z,1.00
2018-02-12T02:40:21.866Z,1.10
2018-02-12T02:42:49.394Z,2.05
2018-02-12T02:45:17.013Z,0.80
2018-02-12T02:47:44.558Z,0.80
2018-02-12T02:50:12.133Z,1.00
2018-02-12T02:52:39.704Z,1.10
2018-02-12T02:55:07.274Z,0.80
2018-02-12T02:57:34.833Z,0.95
2018-02-12T03:00:02.392Z,1.10
2018-02-12T03:02:29.946Z,1.02
2018-02-12T03:04:57.468Z,0.90
2018-02-12T03:07:25.020Z,1.00
2018-02-12T03:09:53.316Z,1.08
2018-02-12T03:12:20.871Z,1.52
2018-02-12T03:14:48.430Z,1.30
2018-02-12T03:17:15.969Z,1.00
2018-02-12T03:19:44.357Z,0.90
2018-02-12T03:22:12.690Z,0.90
2018-02-12T03:24:40.243Z,1.20
2018-02-12T03:27:07.788Z,0.90
2018-02-12T03:29:35.343Z,1.30
2018-02-12T03:32:02.906Z,0.82
2018-02-12T03:34:30.459Z,1.00
2018-02-12T03:36:58.019Z,1.20
2018-02-12T03:39:25.585Z,1.10
2018-02-12T03:41:53.166Z,2.05
2018-02-12T03:44:20.725Z,0.90
2018-02-12T03:46:48.283Z,1.20
2018-02-12T03:49:15.814Z,0.90
2018-02-12T03:51:43.356Z,1.10
2018-02-12T03:54:10.907Z,1.20
2018-02-12T03:56:39.251Z,1.17
2018-02-12T03:59:06.808Z,1.00
2018-02-12T04:01:34.378Z,1.20
2018-02-12T04:04:01.933Z,1.00
2018-02-12T04:06:29.498Z,1.10
2018-02-12T04:08:57.431Z,1.35
2018-02-12T04:11:24.975Z,1.10
2018-02-12T04:13:52.582Z,1.20
2018-02-12T04:16:20.123Z,1.33
2018-02-12T04:18:47.707Z,1.30
2018-02-12T04:21:15.252Z,1.30
2018-02-12T04:23:42.874Z,0.90
2018-02-12T04:26:11.207Z,1.30
2018-02-12T04:28:38.757Z,1.65
2018-02-12T04:31:06.299Z,1.12
2018-02-12T04:33:33.854Z,1.27
2018-02-12T04:36:01.390Z,1.12
2018-02-12T04:38:28.964Z,1.37
2018-02-12T04:40:56.513Z,1.23
2018-02-12T04:43:24.063Z,1.20
2018-02-12T04:45:51.624Z,1.10
2018-02-12T04:48:19.214Z,1.30
2018-02-12T04:50:46.878Z,1.45
2018-02-12T04:53:14.450Z,1.40
2018-02-12T04:55:41.989Z,1.10
2018-02-12T04:58:09.548Z,1.80
2018-02-12T05:00:37.097Z,1.50
2018-02-12T05:03:04.657Z,1.20
2018-02-12T05:05:32.226Z,1.20
2018-02-12T05:07:59.800Z,1.48
2018-02-12T05:10:27.332Z,1.10
2018-02-12T05:12:54.925Z,1.70
2018-02-12T05:15:22.462Z,1.12
2018-02-12T05:17:50.166Z,1.10
2018-02-12T05:20:17.705Z,1.17
2018-02-12T05:22:45.233Z,1.37
2018-02-12T05:25:12.917Z,1.10
2018-02-12T05:27:40.468Z,1.17
2018-02-12T05:30:08.020Z,1.00
2018-02-12T05:32:35.572Z,1.10
2018-02-12T05:35:03.137Z,1.40
2018-02-12T05:37:30.677Z,1.52
2018-02-12T05:39:59.012Z,1.30
2018-02-12T05:42:26.568Z,1.02
2018-02-12T05:44:54.207Z,1.12
2018-02-12T05:47:21.753Z,1.40
2018-02-12T05:49:49.311Z,1.10
2018-02-12T05:52:16.880Z,1.48
2018-02-12T05:54:44.451Z,1.37
2018-02-12T05:57:12.028Z,1.42
2018-02-12T05:59:39.593Z,1.17
2018-02-12T06:02:07.132Z,1.10
2018-02-12T06:04:34.727Z,1.95
2018-02-12T06:07:02.253Z,1.20
2018-02-12T06:09:29.856Z,1.12
2018-02-12T06:11:57.632Z,1.52
2018-02-12T06:14:25.198Z,1.12
2018-02-12T06:16:53.535Z,1.40
2018-02-12T06:19:21.078Z,1.33
2018-02-12T06:21:48.648Z,1.62
2018-02-12T06:24:16.226Z,1.25
2018-02-12T06:26:45.844Z,1.52
2018-02-12T06:29:13.423Z,1.60
2018-02-12T06:31:41.760Z,1.77
2018-02-12T06:34:09.317Z,2.75
2018-02-12T06:36:36.894Z,2.50
2018-02-12T06:39:04.489Z,2.30
2018-02-12T06:41:32.805Z,2.33
2018-02-12T06:44:00.376Z,2.60
2018-02-12T06:46:27.921Z,2.50
2018-02-12T06:48:55.505Z,1.75
2018-02-12T06:51:23.036Z,1.60
2018-02-12T06:53:50.569Z,2.10
2018-02-12T06:56:18.896Z,1.55
2018-02-12T06:58:46.445Z,1.73
2018-02-12T07:01:13.999Z,1.40
2018-02-12T07:03:41.616Z,1.75
2018-02-12T07:06:09.957Z,1.87
2018-02-12T07:08:37.508Z,1.80
2018-02-12T07:11:05.122Z,1.80
2018-02-12T07:13:33.449Z,1.90
2018-02-12T07:16:01.059Z,1.95
2018-02-12T07:18:29.392Z,1.70
2018-02-12T07:20:56.988Z,1.95
2018-02-12T07:23:25.317Z,2.50
2018-02-12T07:25:52.882Z,1.83
2018-02-12T07:28:20.446Z,2.10
2018-02-12T07:30:48.014Z,1.75
2018-02-12T07:33:15.568Z,1.80
2018-02-12T07:35:43.165Z,1.83
2018-02-12T07:38:11.521Z,1.80
2018-02-12T07:40:39.065Z,2.20
2018-02-12T07:43:06.624Z,2.15
2018-02-12T07:45:34.191Z,1.75
2018-02-12T07:48:01.749Z,1.77
2018-02-12T07:50:29.306Z,1.50
2018-02-12T07:52:56.888Z,1.50
2018-02-12T07:55:25.212Z,1.65
2018-02-12T07:57:52.777Z,1.55
2018-02-12T08:00:20.325Z,1.70
2018-02-12T08:02:48.643Z,1.30
2018-02-12T08:05:16.199Z,1.60
2018-02-12T08:07:43.756Z,1.90
2018-02-12T08:10:11.347Z,1.40
2018-02-12T08:12:38.956Z,1.55
2018-02-12T08:15:06.552Z,1.30
2018-02-12T08:17:34.096Z,1.45
2018-02-12T08:20:01.662Z,1.40
2018-02-12T08:22:29.208Z,1.65
2018-02-12T08:24:56.773Z,1.23
2018-02-12T08:27:24.333Z,1.23
2018-02-12T08:29:51.915Z,1.25
2018-02-12T08:32:19.473Z,1.58
2018-02-12T08:34:47.061Z,1.20
2018-02-12T08:37:15.402Z,1.48
2018-02-12T08:39:43.004Z,1.10
2018-02-12T08:42:11.351Z,1.00
2018-02-12T08:44:38.892Z,1.00
2018-02-12T08:47:06.483Z,1.12
2018-02-12T08:49:34.038Z,1.00
2018-02-12T08:52:01.637Z,1.35
2018-02-12T08:54:29.212Z,1.00
2018-02-12T08:56:56.818Z,0.90
2018-02-12T08:59:24.452Z,1.10
2018-02-12T09:01:52.056Z,1.17
2018-02-12T09:04:19.984Z,0.90
2018-02-12T09:06:47.524Z,1.10
2018-02-12T09:09:15.108Z,0.90
2018-02-12T09:11:42.682Z,1.03
2018-02-12T09:14:10.256Z,1.40
2018-02-12T09:16:37.823Z,1.13
2018-02-12T09:19:05.404Z,1.20
2018-02-12T09:21:33.740Z,1.10
2018-02-12T09:24:01.335Z,0.93
2018-02-12T09:26:29.708Z,0.90
2018-02-12T09:28:57.254Z,1.00
2018-02-12T09:31:24.852Z,1.00
2018-02-12T09:33:53.163Z,0.90
2018-02-12T09:36:20.746Z,1.20
2018-02-12T09:38:48.312Z,1.20
2018-02-12T09:41:15.896Z,1.10
2018-02-12T09:43:44.212Z,0.90
2018-02-12T09:46:11.804Z,0.90
2018-02-12T09:48:39.356Z,0.93
2018-02-12T09:51:06.933Z,1.10
2018-02-12T09:53:34.508Z,1.00
2018-02-12T09:56:02.074Z,0.93
2018-02-12T09:58:30.416Z,1.10
2018-02-12T10:00:57.954Z,0.90
2018-02-12T10:03:25.520Z,1.13
2018-02-12T10:05:53.092Z,1.10
2018-02-12T10:08:20.737Z,0.90
2018-02-12T10:10:48.287Z,1.10
2018-02-12T10:13:15.861Z,0.90
2018-02-12T10:15:43.407Z,0.90
2018-02-12T10:18:10.984Z,1.03
2018-02-12T10:20:38.643Z,1.33
2018-02-12T10:23:06.232Z,1.00
2018-02-12T10:25:33.794Z,1.00
2018-02-12T10:28:01.360Z,1.10
2018-02-12T10:30:28.908Z,0.90
2018-02-12T10:32:56.490Z,1.27
2018-02-12T10:35:24.069Z,1.20
2018-02-12T10:37:52.416Z,1.10
2018-02-12T10:40:20.281Z,1.10
2018-02-12T10:42:47.826Z,1.00
2018-02-12T10:45:15.386Z,1.27
2018-02-12T10:47:42.927Z,1.25
2018-02-12T10:50:10.500Z,1.10
2018-02-12T10:52:38.048Z,0.93
2018-02-12T10:55:05.609Z,1.55
2018-02-12T10:57:33.168Z,0.90
2018-02-12T11:00:00.749Z,1.17
2018-02-12T11:02:28.292Z,1.30
2018-02-12T11:04:55.884Z,1.35
2018-02-12T11:07:23.466Z,1.00
2018-02-12T11:09:51.822Z,1.10
2018-02-12T11:12:19.420Z,1.10
2018-02-12T11:14:47.734Z,1.00
2018-02-12T11:17:15.292Z,1.00
2018-02-12T11:19:42.865Z,1.17
2018-02-12T11:22:10.461Z,1.15
2018-02-12T11:24:38.778Z,1.10
2018-02-12T11:27:06.454Z,1.10
2018-02-12T11:29:34.006Z,1.10
2018-02-12T11:32:01.586Z,1.02
2018-02-12T11:34:29.128Z,1.35
2018-02-12T11:36:56.695Z,1.10
2018-02-12T11:39:24.264Z,1.10
2018-02-12T11:41:51.853Z,1.17
2018-02-12T11:44:19.416Z,0.93
2018-02-12T11:46:46.971Z,1.37
2018-02-12T11:49:14.543Z,1.50
2018-02-12T11:51:42.868Z,1.23
2018-02-12T11:54:10.424Z,1.40
2018-02-12T11:56:38.008Z,0.80
2018-02-12T11:59:05.624Z,0.90
2018-02-12T12:01:33.168Z,1.10
2018-02-12T12:04:01.515Z,1.02
2018-02-12T12:06:29.045Z,1.02
2018-02-12T12:08:56.609Z,1.02
2018-02-12T12:11:24.167Z,0.88
2018-02-12T12:13:51.723Z,0.90
2018-02-12T12:16:19.309Z,1.35
2018-02-12T12:18:46.865Z,1.10
2018-02-12T12:21:14.431Z,1.10
2018-02-12T12:23:41.977Z,1.02
2018-02-12T12:26:09.593Z,1.00
2018-02-12T12:28:37.112Z,1.00
2018-02-12T12:31:04.673Z,1.50
2018-02-12T12:33:32.238Z,1.00
2018-02-12T12:35:59.812Z,1.00
2018-02-12T12:38:27.349Z,0.90
2018-02-12T12:40:54.909Z,1.17
2018-02-12T12:43:22.459Z,1.00
2018-02-12T12:45:50.021Z,1.00
2018-02-12T12:48:17.549Z,1.25
2018-02-12T12:50:45.122Z,1.20
2018-02-12T12:53:12.691Z,1.00
2018-02-12T12:55:40.233Z,1.30
2018-02-12T12:58:07.806Z,1.92
2018-02-12T13:00:35.332Z,1.05
2018-02-12T13:03:03.666Z,1.25
2018-02-12T13:05:31.196Z,1.05
2018-02-12T13:07:58.772Z,0.88
2018-02-12T13:10:26.315Z,1.02
2018-02-12T13:12:53.892Z,1.23
2018-02-12T13:15:21.463Z,1.20
2018-02-12T13:17:49.024Z,1.15
2018-02-12T13:20:18.564Z,1.10
2018-02-12T13:22:46.882Z,1.27
2018-02-12T13:25:14.466Z,1.23
2018-02-12T13:27:42.031Z,1.10
2018-02-12T13:30:09.578Z,1.10
2018-02-12T13:32:37.116Z,1.08
2018-02-12T13:35:04.692Z,1.20
2018-02-12T13:37:32.276Z,1.45
2018-02-12T13:39:59.821Z,1.10
2018-02-12T13:42:27.396Z,1.02
2018-02-12T13:44:54.945Z,1.02
2018-02-12T13:47:22.504Z,1.23
2018-02-12T13:49:50.075Z,1.20
2018-02-12T13:52:17.661Z,1.40
2018-02-12T13:54:45.996Z,1.60
2018-02-12T13:57:13.580Z,1.12
2018-02-12T13:59:41.131Z,1.40
2018-02-12T14:02:08.680Z,1.23
2018-02-12T14:04:36.245Z,1.40
2018-02-12T14:07:03.788Z,1.30
2018-02-12T14:09:31.346Z,1.75
2018-02-12T14:11:58.910Z,1.60
2018-02-12T14:14:26.479Z,1.67
2018-02-12T14:16:54.039Z,2.00
2018-02-12T14:19:21.642Z,1.58
2018-02-12T14:21:49.945Z,1.67
2018-02-12T14:24:17.486Z,1.10
2018-02-12T14:26:45.843Z,1.37
2018-02-12T14:29:13.404Z,1.30
2018-02-12T14:31:40.990Z,1.60
2018-02-12T14:34:08.557Z,1.42
2018-02-12T14:36:36.886Z,1.60
2018-02-12T14:39:04.425Z,1.48
2018-02-12T14:41:31.997Z,1.42
2018-02-12T14:43:59.562Z,1.40
2018-02-12T14:46:27.110Z,1.60
2018-02-12T14:48:54.708Z,1.37
2018-02-12T14:51:22.261Z,1.60
2018-02-12T14:53:49.824Z,1.65
2018-02-12T14:56:17.386Z,1.30
2018-02-12T14:58:44.986Z,1.35
2018-02-12T15:01:12.560Z,1.25
2018-02-12T15:03:40.149Z,1.60
2018-02-12T15:06:07.707Z,1.27
2018-02-12T15:08:35.265Z,1.62
2018-02-12T15:11:02.831Z,1.67
2018-02-12T15:13:30.471Z,1.40
2018-02-12T15:15:58.055Z,1.30
2018-02-12T15:18:25.637Z,2.00
2018-02-12T15:20:53.185Z,1.27
2018-02-12T15:23:21.535Z,1.50
2018-02-12T15:25:49.105Z,1.50
2018-02-12T15:28:16.653Z,1.75
2018-02-12T15:30:44.208Z,2.30
2018-02-12T15:33:11.784Z,1.55
2018-02-12T15:35:39.327Z,1.35
2018-02-12T15:38:06.941Z,1.45
2018-02-12T15:40:35.294Z,1.33
2018-02-12T15:43:02.867Z,1.20
2018-02-12T15:45:30.422Z,1.42
2018-02-12T15:47:58.787Z,1.20
2018-02-12T15:50:26.336Z,1.20
2018-02-12T15:52:53.891Z,1.48
2018-02-12T15:55:21.452Z,1.30
2018-02-12T15:57:49.035Z,1.67
2018-02-12T16:00:16.584Z,2.03
2018-02-12T16:02:44.166Z,1.30
2018-02-12T16:05:11.745Z,1.52
2018-02-12T16:07:40.047Z,1.55
2018-02-12T16:10:07.608Z,1.65
2018-02-12T16:12:35.176Z,1.65
2018-02-12T16:15:02.766Z,1.60
2018-02-12T16:17:30.312Z,1.20
2018-02-12T16:19:57.886Z,1.40
2018-02-12T16:22:25.478Z,1.35
2018-02-12T16:24:53.807Z,1.85
2018-02-12T16:27:21.393Z,1.80
2018-02-12T16:29:48.953Z,1.40
2018-02-12T16:32:16.540Z,1.70
2018-02-12T16:34:44.092Z,1.75
2018-02-12T16:37:12.453Z,2.22
2018-02-12T16:39:40.019Z,2.00
2018-02-12T16:42:07.594Z,2.28
2018-02-12T16:44:35.966Z,1.95
2018-02-12T16:47:04.774Z,1.73
2018-02-12T16:49:33.098Z,2.25
2018-02-12T16:52:00.692Z,2.65
2018-02-12T16:54:28.253Z,1.98
2018-02-12T16:56:56.590Z,2.05
2018-02-12T16:59:24.172Z,1.80
2018-02-12T17:01:51.720Z,2.30
2018-02-12T17:04:19.475Z,2.15
2018-02-12T17:06:47.024Z,1.90
2018-02-12T17:09:15.461Z,2.35
2018-02-12T17:11:43.008Z,4.82
2018-02-12T17:14:10.566Z,2.27
2018-02-12T17:16:38.121Z,2.45
2018-02-12T17:19:05.709Z,1.92
2018-02-12T17:21:34.044Z,2.03
2018-02-12T17:24:02.535Z,1.52
2018-02-12T17:26:30.091Z,2.22
2018-02-12T17:28:57.644Z,2.17
2018-02-12T17:31:25.205Z,2.28
2018-02-12T17:33:52.761Z,2.05
2018-02-12T17:36:20.335Z,1.73
2018-02-12T17:38:47.893Z,1.95
2018-02-12T17:41:15.467Z,2.25
2018-02-12T17:43:43.075Z,2.20
2018-02-12T17:46:10.638Z,2.20
2018-02-12T17:48:38.222Z,2.30
2018-02-12T17:51:05.839Z,2.42
2018-02-12T17:53:34.181Z,2.30
2018-02-12T17:56:01.733Z,2.80
2018-02-12T17:58:29.309Z,2.95
2018-02-12T18:00:56.910Z,2.30
2018-02-12T18:03:24.489Z,1.90
2018-02-12T18:05:52.049Z,2.15
2018-02-12T18:08:19.609Z,2.47
2018-02-12T18:10:47.141Z,3.08
2018-02-12T18:13:16.381Z,2.92
2018-02-12T18:15:43.965Z,2.40
2018-02-12T18:18:11.558Z,3.20
2018-02-12T18:20:39.869Z,2.10
2018-02-12T18:23:07.433Z,3.58
2018-02-12T18:25:35.018Z,2.85
2018-02-12T18:28:02.620Z,2.25
2018-02-12T18:30:30.947Z,3.35
2018-02-12T18:32:58.518Z,2.47
2018-02-12T18:35:26.077Z,2.53
2018-02-12T18:37:53.636Z,3.17
2018-02-12T18:40:21.232Z,2.60
2018-02-12T18:42:49.576Z,2.62
2018-02-12T18:45:17.148Z,2.12
2018-02-12T18:47:44.741Z,2.10
2018-02-12T18:50:13.063Z,2.65
2018-02-12T18:52:40.633Z,1.92
2018-02-12T18:55:08.202Z,2.37
2018-02-12T18:57:35.791Z,2.50
2018-02-12T19:00:04.114Z,2.60
2018-02-12T19:02:31.704Z,2.60
2018-02-12T19:04:59.255Z,2.75
2018-02-12T19:07:26.830Z,2.55
2018-02-12T19:09:54.388Z,2.78
2018-02-12T19:12:21.960Z,2.20
2018-02-12T19:14:49.538Z,3.08
2018-02-12T19:17:17.888Z,3.15
2018-02-12T19:19:45.481Z,2.40
2018-02-12T19:22:13.807Z,2.75
2018-02-12T19:24:41.379Z,2.55
2018-02-12T19:27:08.936Z,2.45
2018-02-12T19:29:36.540Z,2.25
2018-02-12T19:32:04.118Z,2.20
2018-02-12T19:34:31.695Z,2.20
2018-02-12T19:36:59.276Z,2.28
2018-02-12T19:39:26.883Z,3.33
2018-02-12T19:41:54.445Z,2.85
2018-02-12T19:44:22.054Z,2.95
2018-02-12T19:46:49.745Z,3.35
2018-02-12T19:49:17.324Z,2.40
2018-02-12T19:51:44.948Z,2.28
2018-02-12T19:54:12.582Z,2.70
2018-02-12T19:56:40.144Z,3.08
2018-02-12T19:59:07.744Z,3.33
2018-02-12T20:01:35.740Z,3.80
2018-02-12T20:04:03.306Z,4.55
2018-02-12T20:06:31.637Z,4.20
2018-02-12T20:08:59.278Z,3.60
2018-02-12T20:11:26.835Z,4.47
2018-02-12T20:13:54.389Z,4.22
2018-02-12T20:16:22.029Z,3.97
2018-02-12T20:18:49.576Z,4.05
2018-02-12T20:21:17.948Z,3.62
2018-02-12T20:23:46.266Z,3.85
2018-02-12T20:26:13.876Z,4.15
2018-02-12T20:28:41.424Z,3.50
2018-02-12T20:31:08.997Z,4.22
2018-02-12T20:33:36.549Z,4.68
2018-02-12T20:36:04.904Z,4.12
2018-02-12T20:38:32.450Z,4.85
2018-02-12T20:41:00.041Z,4.80
2018-02-12T20:43:27.620Z,4.35
2018-02-12T20:45:55.951Z,4.32
2018-02-12T20:48:23.607Z,6.05
2018-02-12T20:50:51.161Z,6.03
2018-02-12T20:53:18.724Z,5.50
2018-02-12T20:55:47.259Z,4.80
2018-02-12T20:58:15.618Z,4.70
2018-02-12T21:00:43.155Z,5.65
2018-02-12T21:03:10.734Z,5.15
2018-02-12T21:05:38.279Z,4.35
2018-02-12T21:08:05.856Z,6.05
2018-02-12T21:10:33.493Z,4.50
2018-02-12T21:13:01.072Z,4.70
2018-02-12T21:15:28.638Z,4.40
2018-02-12T21:17:56.244Z,4.37
2018-02-12T21:20:23.881Z,5.95
2018-02-12T21:22:51.467Z,5.10
2018-02-12T21:25:19.033Z,7.45
2018-02-12T21:27:46.603Z,6.12
2018-02-12T21:30:14.253Z,6.12
2018-02-12T21:32:41.944Z,5.20
2018-02-12T21:35:09.507Z,4.20
2018-02-12T21:37:37.085Z,3.87
2018-02-12T21:40:04.726Z,4.55
2018-02-12T21:42:32.280Z,4.20
2018-02-12T21:44:59.857Z,5.68
2018-02-12T21:47:27.433Z,4.37
2018-02-12T21:49:55.028Z,5.87
2018-02-12T21:52:23.369Z,5.95
2018-02-12T21:54:50.944Z,8.13
2018-02-12T21:57:18.527Z,5.72
2018-02-12T21:59:46.863Z,5.20
2018-02-12T22:02:14.438Z,5.35
2018-02-12T22:04:42.014Z,7.03
2018-02-12T22:07:10.336Z,5.47
2018-02-12T22:09:37.902Z,5.80
2018-02-12T22:12:05.456Z,6.90
2018-02-12T22:14:33.029Z,6.05
2018-02-12T22:17:00.614Z,6.50
2018-02-12T22:19:28.224Z,7.95
2018-02-12T22:21:56.550Z,5.57
2018-02-12T22:24:24.128Z,7.10
2018-02-12T22:26:52.436Z,6.90
2018-02-12T22:29:20.049Z,4.25
2018-02-12T22:31:48.435Z,4.85
2018-02-12T22:34:15.993Z,6.05
2018-02-12T22:36:43.583Z,7.87
2018-02-12T22:39:11.884Z,6.12
2018-02-12T22:41:39.475Z,14.02
2018-02-12T22:44:08.828Z,12.13
2018-02-12T22:46:37.156Z,12.30
2018-02-12T22:49:04.732Z,7.85
2018-02-12T22:51:32.277Z,10.70
2018-02-12T22:53:59.856Z,7.10
2018-02-12T22:56:27.392Z,6.53
2018-02-12T22:58:54.984Z,7.70
2018-02-12T23:01:23.321Z,7.62
2018-02-12T23:03:50.893Z,5.75
2018-02-12T23:06:18.436Z,8.75
2018-02-12T23:08:45.990Z,7.03
2018-02-12T23:11:13.551Z,8.32
2018-02-12T23:13:41.117Z,6.18
2018-02-12T23:16:08.690Z,6.53
2018-02-12T23:18:36.243Z,4.95
2018-02-12T23:21:03.797Z,5.47
2018-02-12T23:23:31.355Z,5.95
2018-02-12T23:25:58.923Z,6.37
2018-02-12T23:28:26.477Z,6.20
2018-02-12T23:30:54.054Z,5.72
2018-02-12T23:33:21.615Z,5.85
2018-02-12T23:35:49.161Z,6.82
2018-02-12T23:38:16.725Z,5.05
2018-02-12T23:40:44.254Z,5.05
2018-02-12T23:43:11.812Z,5.93
2018-02-12T23:45:39.355Z,4.55
2018-02-12T23:48:07.672Z,5.10
2018-02-12T23:50:35.233Z,4.85
2018-02-12T23:53:02.857Z,5.12
2018-02-12T23:55:31.200Z,4.60
2018-02-12T23:57:58.756Z,4.35
